Time;durP1;ratioP1;P1;durP2;ratioP2;P2;SDS_P1;SDS_P2;PMS_P1;PMS_P2;Temp;Humidity;BMP_temperature;BMP_pressure;BME280_temperature;BME280_humidity;BME280_pressure;Samples;Min_cycle;Max_cycle;Signal;HPM_P1;HPM_P2
2022/01/04 00:01:57;;;;;;;1.60;0.60;;;;;;;;;;5078192;28;20477;-80
2022/01/04 00:04:23;;;;;;;0.70;0.60;;;;;;;;;;5079399;28;20028;-79
2022/01/04 00:06:48;;;;;;;0.82;0.50;;;;;;;;;;5080610;28;20028;-78
2022/01/04 00:09:14;;;;;;;1.02;0.63;;;;;;;;;;5079523;28;20082;-79
2022/01/04 00:14:17;;;;;;;2.47;0.65;;;;;;;;;;5079487;28;20035;-80
2022/01/04 00:16:42;;;;;;;1.08;0.60;;;;;;;;;;5079014;28;20029;-80
2022/01/04 00:19:08;;;;;;;0.90;0.50;;;;;;;;;;5079424;28;20126;-80
2022/01/04 00:21:33;;;;;;;1.98;0.60;;;;;;;;;;5079106;28;20025;-79
2022/01/04 00:23:59;;;;;;;0.50;0.50;;;;;;;;;;5079315;28;20032;-77
2022/01/04 00:26:25;;;;;;;0.52;0.40;;;;;;;;;;5079205;28;20028;-79
2022/01/04 00:28:50;;;;;;;0.80;0.50;;;;;;;;;;5079437;28;20020;-80
2022/01/04 00:31:15;;;;;;;1.53;0.50;;;;;;;;;;5079427;28;20066;-78
2022/01/04 00:33:40;;;;;;;0.40;0.40;;;;;;;;;;5079567;28;20273;-79
2022/01/04 00:36:06;;;;;;;2.03;0.40;;;;;;;;;;5077689;28;20261;-78
2022/01/04 00:38:32;;;;;;;0.43;0.40;;;;;;;;;;5079356;28;20261;-78
2022/01/04 00:40:57;;;;;;;1.67;0.63;;;;;;;;;;5079088;28;20112;-81
2022/01/04 00:43:23;;;;;;;2.13;0.60;;;;;;;;;;5078970;28;20028;-80
2022/01/04 00:45:49;;;;;;;0.73;0.57;;;;;;;;;;5078967;28;20025;-79
2022/01/04 00:50:40;;;;;;;2.28;0.60;;;;;;;;;;5078921;28;20017;-80
2022/01/04 00:53:06;;;;;;;0.77;0.50;;;;;;;;;;5078503;28;20044;-79
2022/01/04 00:55:31;;;;;;;0.82;0.68;;;;;;;;;;5076613;28;20264;-79
2022/01/04 00:57:57;;;;;;;2.53;0.55;;;;;;;;;;5078789;28;20028;-79
2022/01/04 01:00:23;;;;;;;0.60;0.55;;;;;;;;;;5076948;28;20020;-80
2022/01/04 01:02:49;;;;;;;2.70;0.73;;;;;;;;;;5078397;28;20111;-80
2022/01/04 01:05:15;;;;;;;2.17;0.75;;;;;;;;;;5078356;28;20029;-79
2022/01/04 01:07:41;;;;;;;1.15;0.73;;;;;;;;;;5076957;28;20061;-80
2022/01/04 01:12:53;;;;;;;0.85;0.52;;;;;;;;;;5079739;28;20035;-83
2022/01/04 01:15:20;;;;;;;3.03;0.75;;;;;;;;;;5078268;28;20111;-81
2022/01/04 01:17:45;;;;;;;1.40;0.60;;;;;;;;;;5077438;28;20028;-79
2022/01/04 01:20:13;;;;;;;0.93;0.45;;;;;;;;;;5079026;28;20074;-81
2022/01/04 01:22:39;;;;;;;0.75;0.40;;;;;;;;;;5077825;28;20035;-81
2022/01/04 01:25:05;;;;;;;1.38;0.50;;;;;;;;;;5079543;28;20060;-80
2022/01/04 01:27:31;;;;;;;0.93;0.57;;;;;;;;;;5077328;28;20028;-79
2022/01/04 01:29:56;;;;;;;1.10;0.60;;;;;;;;;;5077118;28;20036;-79
2022/01/04 01:32:21;;;;;;;1.33;0.60;;;;;;;;;;5078352;28;20028;-78
2022/01/04 01:34:47;;;;;;;0.65;0.52;;;;;;;;;;5078484;28;20021;-79
2022/01/04 01:37:12;;;;;;;1.27;0.57;;;;;;;;;;5076685;28;20056;-81
2022/01/04 01:39:37;;;;;;;1.60;0.57;;;;;;;;;;5078153;28;20272;-80
2022/01/04 01:42:03;;;;;;;0.73;0.68;;;;;;;;;;5075849;28;20020;-80
2022/01/04 01:44:31;;;;;;;1.88;0.68;;;;;;;;;;5077306;28;20035;-80
2022/01/04 01:46:56;;;;;;;0.90;0.68;;;;;;;;;;5076925;28;20388;-80
2022/01/04 01:49:21;;;;;;;2.35;0.60;;;;;;;;;;5075214;28;20101;-80
2022/01/04 01:51:47;;;;;;;3.10;0.70;;;;;;;;;;5077418;28;20436;-79
2022/01/04 01:54:13;;;;;;;3.42;0.63;;;;;;;;;;5076934;28;20059;-81
2022/01/04 01:56:38;;;;;;;2.17;0.60;;;;;;;;;;5076976;28;20071;-79
2022/01/04 01:59:03;;;;;;;0.93;0.45;;;;;;;;;;5076902;28;20025;-79
2022/01/04 02:01:29;;;;;;;1.67;0.63;;;;;;;;;;5077022;28;20024;-79
2022/01/04 02:03:54;;;;;;;0.82;0.63;;;;;;;;;;5075865;28;20458;-81
2022/01/04 02:06:21;;;;;;;2.57;0.80;;;;;;;;;;5075643;28;20024;-80
2022/01/04 02:08:46;;;;;;;1.02;0.55;;;;;;;;;;5076944;28;20281;-80
2022/01/04 02:11:12;;;;;;;1.23;0.60;;;;;;;;;;5075672;28;20090;-80
2022/01/04 02:13:38;;;;;;;1.38;0.63;;;;;;;;;;5075658;28;20028;-80
2022/01/04 02:16:04;;;;;;;1.08;0.70;;;;;;;;;;5076516;28;20159;-79
2022/01/04 02:18:29;;;;;;;0.60;0.60;;;;;;;;;;5076502;28;20052;-80
2022/01/04 02:20:55;;;;;;;2.42;0.65;;;;;;;;;;5076058;28;20024;-78
2022/01/04 02:23:20;;;;;;;3.25;0.98;;;;;;;;;;5076081;28;20489;-79
2022/01/04 02:25:47;;;;;;;2.35;0.77;;;;;;;;;;5076224;28;20028;-79
2022/01/04 02:28:12;;;;;;;3.28;0.80;;;;;;;;;;5076763;28;20024;-79
2022/01/04 02:30:38;;;;;;;1.27;0.70;;;;;;;;;;5076962;28;20035;-80
2022/01/04 02:33:03;;;;;;;1.00;0.80;;;;;;;;;;5075324;28;20024;-79
2022/01/04 02:35:30;;;;;;;1.05;0.70;;;;;;;;;;5074655;28;20505;-80
2022/01/04 02:37:57;;;;;;;1.20;0.80;;;;;;;;;;5076342;28;20052;-79
2022/01/04 02:40:23;;;;;;;1.52;0.77;;;;;;;;;;5075867;28;20028;-79
2022/01/04 02:42:49;;;;;;;2.60;0.90;;;;;;;;;;5076519;28;20456;-79
2022/01/04 02:45:14;;;;;;;1.40;0.80;;;;;;;;;;5076325;28;20052;-79
2022/01/04 02:47:41;;;;;;;1.58;0.90;;;;;;;;;;5074937;28;20013;-81
2022/01/04 02:50:07;;;;;;;1.80;0.80;;;;;;;;;;5076163;28;20020;-78
2022/01/04 02:52:34;;;;;;;1.75;0.90;;;;;;;;;;5075433;28;20038;-79
2022/01/04 02:55:00;;;;;;;3.33;1.10;;;;;;;;;;5076009;28;20028;-79
2022/01/04 02:57:25;;;;;;;2.50;0.95;;;;;;;;;;5076404;28;20032;-79
2022/01/04 02:59:50;;;;;;;3.90;1.27;;;;;;;;;;5074978;28;20021;-77
2022/01/04 03:02:16;;;;;;;1.52;1.00;;;;;;;;;;5076050;28;20028;-80
2022/01/04 03:04:41;;;;;;;1.25;0.70;;;;;;;;;;5076568;28;20059;-78
2022/01/04 03:07:06;;;;;;;2.00;0.82;;;;;;;;;;5076225;28;20017;-79
2022/01/04 03:09:32;;;;;;;1.52;0.75;;;;;;;;;;5076526;28;20462;-78
2022/01/04 03:11:57;;;;;;;1.52;0.90;;;;;;;;;;5076916;28;20465;-78
2022/01/04 03:14:23;;;;;;;1.17;0.80;;;;;;;;;;5080193;28;20070;-78
2022/01/04 03:16:48;;;;;;;0.85;0.80;;;;;;;;;;5080084;28;20123;-78
2022/01/04 03:19:13;;;;;;;4.20;1.00;;;;;;;;;;5080211;28;20056;-79
2022/01/04 03:21:43;;;;;;;4.50;0.90;;;;;;;;;;5080464;28;20423;-79
2022/01/04 03:24:11;;;;;;;2.72;0.90;;;;;;;;;;5080522;28;20085;-77
2022/01/04 03:26:37;;;;;;;2.17;0.70;;;;;;;;;;5079885;28;20024;-80
2022/01/04 03:29:05;;;;;;;2.67;1.17;;;;;;;;;;5080117;28;20107;-80
2022/01/04 03:31:30;;;;;;;3.45;1.00;;;;;;;;;;5080155;28;20397;-79
2022/01/04 03:33:55;;;;;;;1.33;0.80;;;;;;;;;;5080695;28;20039;-78
2022/01/04 03:36:22;;;;;;;3.33;0.90;;;;;;;;;;5079517;28;20032;-79
2022/01/04 03:38:49;;;;;;;3.53;1.45;;;;;;;;;;5079902;28;20475;-77
2022/01/04 03:41:18;;;;;;;5.65;1.15;;;;;;;;;;5078729;28;20035;-79
2022/01/04 03:43:44;;;;;;;1.65;1.00;;;;;;;;;;5079856;28;20024;-78
2022/01/04 03:46:10;;;;;;;3.53;1.08;;;;;;;;;;5079000;28;20029;-79
2022/01/04 03:48:36;;;;;;;2.33;1.10;;;;;;;;;;5078589;28;20386;-79
2022/01/04 03:51:03;;;;;;;2.40;0.80;;;;;;;;;;5079324;28;20103;-80
2022/01/04 03:53:28;;;;;;;0.93;0.80;;;;;;;;;;5079388;28;20036;-78
2022/01/04 03:55:53;;;;;;;1.60;0.80;;;;;;;;;;5078926;28;20023;-79
2022/01/04 03:58:19;;;;;;;1.25;0.68;;;;;;;;;;5077794;28;20025;-80
2022/01/04 04:00:44;;;;;;;2.05;0.75;;;;;;;;;;5078550;28;20029;-78
2022/01/04 04:03:09;;;;;;;1.08;0.70;;;;;;;;;;5078980;28;20023;-80
2022/01/04 04:05:35;;;;;;;2.17;0.90;;;;;;;;;;5079234;28;20024;-79
2022/01/04 04:08:00;;;;;;;1.83;0.77;;;;;;;;;;5077675;28;20027;-78
2022/01/04 04:10:25;;;;;;;1.20;0.80;;;;;;;;;;5079731;28;20051;-78
2022/01/04 04:12:51;;;;;;;1.83;0.95;;;;;;;;;;5079548;28;20028;-80
2022/01/04 04:15:16;;;;;;;2.47;0.80;;;;;;;;;;5079476;28;20028;-78
2022/01/04 04:17:45;;;;;;;3.45;0.85;;;;;;;;;;5077871;28;20274;-80
2022/01/04 04:20:10;;;;;;;1.90;0.80;;;;;;;;;;5079250;28;20028;-79
2022/01/04 04:22:36;;;;;;;2.67;0.93;;;;;;;;;;5078893;28;20039;-79
2022/01/04 04:25:01;;;;;;;1.35;0.80;;;;;;;;;;5077797;28;20101;-78
2022/01/04 04:27:26;;;;;;;2.33;0.90;;;;;;;;;;5077504;28;20551;-78
2022/01/04 04:29:51;;;;;;;1.08;0.80;;;;;;;;;;5078875;28;20385;-78
2022/01/04 04:32:17;;;;;;;5.50;1.30;;;;;;;;;;5078284;28;20478;-77
2022/01/04 04:34:42;;;;;;;3.03;0.70;;;;;;;;;;5078713;28;20257;-77
2022/01/04 04:37:07;;;;;;;1.35;0.70;;;;;;;;;;5077159;28;20885;-77
2022/01/04 04:39:32;;;;;;;5.28;2.70;;;;;;;;;;5079173;28;20035;-78
2022/01/04 04:41:58;;;;;;;4.68;1.90;;;;;;;;;;5078767;28;20028;-77
2022/01/04 04:44:23;;;;;;;3.67;1.50;;;;;;;;;;5076749;28;20020;-79
2022/01/04 04:46:49;;;;;;;2.58;1.38;;;;;;;;;;5078317;28;20020;-78
2022/01/04 04:49:15;;;;;;;3.10;1.02;;;;;;;;;;5078917;28;20051;-80
2022/01/04 04:51:40;;;;;;;1.95;0.90;;;;;;;;;;5077390;28;20033;-78
2022/01/04 04:54:06;;;;;;;1.50;0.95;;;;;;;;;;5078721;28;20543;-78
2022/01/04 04:56:31;;;;;;;2.47;1.20;;;;;;;;;;5078756;28;20103;-78
2022/01/04 04:58:56;;;;;;;2.30;1.40;;;;;;;;;;5077718;28;20086;-78
2022/01/04 05:01:21;;;;;;;2.78;1.80;;;;;;;;;;5078056;28;20055;-78
2022/01/04 05:03:47;;;;;;;3.63;2.00;;;;;;;;;;5076038;28;20085;-77
2022/01/04 05:06:12;;;;;;;3.00;1.60;;;;;;;;;;5077812;28;20265;-77
2022/01/04 05:08:37;;;;;;;2.63;1.60;;;;;;;;;;5076738;28;20028;-80
2022/01/04 05:11:03;;;;;;;1.50;0.77;;;;;;;;;;5077650;28;20025;-78
2022/01/04 05:13:28;;;;;;;2.60;0.80;;;;;;;;;;5077422;28;20090;-79
2022/01/04 05:15:54;;;;;;;2.15;0.82;;;;;;;;;;5076314;28;20032;-80
2022/01/04 05:18:19;;;;;;;2.80;0.70;;;;;;;;;;5078341;28;20050;-80
2022/01/04 05:20:44;;;;;;;1.00;0.75;;;;;;;;;;5078288;28;20032;-79
2022/01/04 05:23:10;;;;;;;1.83;0.43;;;;;;;;;;5077779;28;20024;-78
2022/01/04 05:25:35;;;;;;;1.00;0.90;;;;;;;;;;5077017;28;20738;-77
2022/01/04 05:28:00;;;;;;;2.72;0.98;;;;;;;;;;5076161;28;20757;-79
2022/01/04 05:30:25;;;;;;;1.02;0.82;;;;;;;;;;5077053;28;20024;-78
2022/01/04 05:32:50;;;;;;;3.38;1.05;;;;;;;;;;5077210;28;20111;-79
2022/01/04 05:35:16;;;;;;;1.27;0.93;;;;;;;;;;5075097;28;20036;-80
2022/01/04 05:37:41;;;;;;;3.47;1.48;;;;;;;;;;5076958;28;20293;-81
2022/01/04 05:40:07;;;;;;;4.63;1.75;;;;;;;;;;5076979;28;20028;-79
2022/01/04 05:42:32;;;;;;;8.65;2.95;;;;;;;;;;5077000;28;20103;-79
2022/01/04 05:44:57;;;;;;;3.35;1.80;;;;;;;;;;5077260;28;20098;-80
2022/01/04 05:47:24;;;;;;;6.50;2.83;;;;;;;;;;5076932;28;20063;-80
2022/01/04 05:49:50;;;;;;;6.30;2.40;;;;;;;;;;5077436;28;20024;-79
2022/01/04 05:52:16;;;;;;;5.63;2.45;;;;;;;;;;5075676;28;20031;-80
2022/01/04 05:54:43;;;;;;;5.30;2.35;;;;;;;;;;5076342;28;20028;-80
2022/01/04 05:57:08;;;;;;;7.35;2.50;;;;;;;;;;5076610;28;20499;-78
2022/01/04 05:59:34;;;;;;;6.65;2.33;;;;;;;;;;5074855;28;20056;-78
2022/01/04 06:01:59;;;;;;;5.13;2.65;;;;;;;;;;5076109;28;20028;-80
2022/01/04 06:04:24;;;;;;;5.60;2.83;;;;;;;;;;5076253;28;20032;-79
2022/01/04 06:06:50;;;;;;;3.78;2.55;;;;;;;;;;5075625;28;20265;-77
2022/01/04 06:09:22;;;;;;;7.13;2.58;;;;;;;;;;5076227;28;20024;-78
2022/01/04 06:16:57;;;;;;;10.75;5.22;;;;;;;;;;5076952;28;20051;-79
2022/01/04 06:19:23;;;;;;;9.70;5.15;;;;;;;;;;5076711;28;20028;-78
2022/01/04 06:21:48;;;;;;;8.05;4.22;;;;;;;;;;5076189;28;20473;-78
2022/01/04 06:24:13;;;;;;;7.25;3.40;;;;;;;;;;5076653;28;20024;-78
2022/01/04 06:26:38;;;;;;;7.38;3.45;;;;;;;;;;5076779;28;20078;-78
2022/01/04 06:29:06;;;;;;;9.23;4.38;;;;;;;;;;5076476;28;20048;-79
2022/01/04 06:31:31;;;;;;;6.80;4.00;;;;;;;;;;5074709;28;20379;-80
2022/01/04 06:33:58;;;;;;;7.88;4.15;;;;;;;;;;5076204;28;20120;-78
2022/01/04 06:36:23;;;;;;;6.97;3.58;;;;;;;;;;5075321;28;20055;-79
2022/01/04 06:38:48;;;;;;;6.18;3.60;;;;;;;;;;5074104;28;20021;-77
2022/01/04 06:41:14;;;;;;;10.48;5.13;;;;;;;;;;5075370;28;20125;-78
2022/01/04 06:43:39;;;;;;;11.52;6.63;;;;;;;;;;5075588;28;20535;-78
2022/01/04 06:46:04;;;;;;;11.05;6.90;;;;;;;;;;5075827;28;20070;-79
2022/01/04 06:48:30;;;;;;;10.38;6.00;;;;;;;;;;5076475;28;20027;-80
2022/01/04 06:50:57;;;;;;;7.77;3.20;;;;;;;;;;5075655;28;20023;-80
2022/01/04 06:53:22;;;;;;;7.40;3.53;;;;;;;;;;5075402;28;20253;-79
2022/01/04 06:55:50;;;;;;;5.38;2.95;;;;;;;;;;5074806;28;20495;-80
2022/01/04 06:58:16;;;;;;;4.45;2.80;;;;;;;;;;5076405;28;20115;-78
2022/01/04 07:00:42;;;;;;;4.85;2.92;;;;;;;;;;5073903;28;20026;-80
2022/01/04 07:03:07;;;;;;;7.13;3.30;;;;;;;;;;5076197;28;20111;-78
2022/01/04 07:05:35;;;;;;;5.70;3.27;;;;;;;;;;5075442;28;20453;-77
2022/01/04 07:08:03;;;;;;;4.70;2.60;;;;;;;;;;5075190;28;20261;-78
2022/01/04 07:10:31;;;;;;;6.65;3.22;;;;;;;;;;5075143;28;20036;-81
2022/01/04 07:12:57;;;;;;;5.57;2.90;;;;;;;;;;5075362;28;20028;-79
2022/01/04 07:15:22;;;;;;;4.90;2.75;;;;;;;;;;5075223;28;20050;-81
2022/01/04 07:17:47;;;;;;;5.50;2.95;;;;;;;;;;5075319;28;20025;-77
2022/01/04 07:20:12;;;;;;;5.10;3.08;;;;;;;;;;5075302;28;20024;-79
2022/01/04 07:22:38;;;;;;;3.80;2.38;;;;;;;;;;5075349;28;20027;-81
2022/01/04 07:25:04;;;;;;;5.72;2.58;;;;;;;;;;5075319;28;20055;-77
2022/01/04 07:27:30;;;;;;;3.85;2.60;;;;;;;;;;5074386;28;20103;-79
2022/01/04 07:29:56;;;;;;;3.72;1.98;;;;;;;;;;5073448;28;20064;-77
2022/01/04 07:32:21;;;;;;;3.47;2.25;;;;;;;;;;5074435;28;20028;-78
2022/01/04 07:34:46;;;;;;;3.92;2.08;;;;;;;;;;5075701;28;20024;-78
2022/01/04 07:37:13;;;;;;;5.60;2.50;;;;;;;;;;5075809;28;20032;-80
2022/01/04 07:39:38;;;;;;;4.80;2.45;;;;;;;;;;5075467;28;20021;-80
2022/01/04 07:42:04;;;;;;;3.60;2.35;;;;;;;;;;5075735;28;20017;-80
2022/01/04 07:44:30;;;;;;;4.30;2.03;;;;;;;;;;5075368;28;20025;-78
2022/01/04 07:46:55;;;;;;;5.50;2.70;;;;;;;;;;5075564;28;20048;-77
2022/01/04 07:49:20;;;;;;;4.18;2.50;;;;;;;;;;5075124;28;20101;-80
2022/01/04 07:51:45;;;;;;;4.70;3.00;;;;;;;;;;5075462;28;20021;-80
2022/01/04 07:54:10;;;;;;;4.28;2.50;;;;;;;;;;5074296;28;20024;-79
2022/01/04 07:56:36;;;;;;;4.80;2.60;;;;;;;;;;5075507;28;20023;-77
2022/01/04 07:59:01;;;;;;;3.75;2.10;;;;;;;;;;5077770;28;20032;-77
2022/01/04 08:01:31;;;;;;;4.72;2.10;;;;;;;;;;5078541;28;20032;-80
2022/01/04 08:03:56;;;;;;;2.92;1.90;;;;;;;;;;5078528;28;20024;-78
2022/01/04 08:06:22;;;;;;;3.10;2.15;;;;;;;;;;5078428;28;20074;-79
2022/01/04 08:08:47;;;;;;;6.20;2.20;;;;;;;;;;5077437;28;20043;-80
2022/01/04 08:11:13;;;;;;;2.83;1.85;;;;;;;;;;5078349;28;20042;-78
2022/01/04 08:13:38;;;;;;;5.72;2.03;;;;;;;;;;5077271;28;20154;-77
2022/01/04 08:16:03;;;;;;;6.22;2.10;;;;;;;;;;5077013;28;20021;-79
2022/01/04 08:18:29;;;;;;;3.85;2.15;;;;;;;;;;5078340;28;20078;-79
2022/01/04 08:20:57;;;;;;;4.55;1.88;;;;;;;;;;5079145;28;20016;-79
2022/01/04 08:23:23;;;;;;;6.32;1.92;;;;;;;;;;5077943;28;20029;-77
2022/01/04 08:25:49;;;;;;;2.78;2.03;;;;;;;;;;5077448;28;20028;-78
2022/01/04 08:28:14;;;;;;;3.85;2.45;;;;;;;;;;5076601;28;20023;-77
2022/01/04 08:30:41;;;;;;;3.35;1.98;;;;;;;;;;5077503;28;20020;-78
2022/01/04 08:33:06;;;;;;;3.30;2.13;;;;;;;;;;5077349;28;20042;-78
2022/01/04 08:35:32;;;;;;;4.75;2.33;;;;;;;;;;5077869;28;20103;-78
2022/01/04 08:37:57;;;;;;;2.97;2.00;;;;;;;;;;5077520;28;20107;-78
2022/01/04 08:40:22;;;;;;;3.95;2.60;;;;;;;;;;5077571;28;20095;-78
2022/01/04 08:42:47;;;;;;;5.82;3.00;;;;;;;;;;5077970;28;20478;-77
2022/01/04 08:45:13;;;;;;;3.80;2.80;;;;;;;;;;5077055;28;20028;-78
2022/01/04 08:47:39;;;;;;;5.80;2.60;;;;;;;;;;5077618;28;20031;-80
2022/01/04 08:50:07;;;;;;;4.90;2.33;;;;;;;;;;5076911;28;20032;-78
2022/01/04 08:52:33;;;;;;;4.05;2.50;;;;;;;;;;5076603;28;20020;-77
2022/01/04 08:54:58;;;;;;;6.10;2.53;;;;;;;;;;5077259;28;20036;-77
2022/01/04 08:57:23;;;;;;;4.00;2.25;;;;;;;;;;5077069;28;20025;-77
2022/01/04 08:59:48;;;;;;;3.05;2.33;;;;;;;;;;5077396;28;20024;-78
2022/01/04 09:02:14;;;;;;;5.78;2.45;;;;;;;;;;5074959;28;20024;-78
2022/01/04 09:04:39;;;;;;;4.10;2.53;;;;;;;;;;5077027;28;20032;-78
2022/01/04 09:07:05;;;;;;;4.35;2.15;;;;;;;;;;5077809;28;20389;-79
2022/01/04 09:09:30;;;;;;;4.68;2.65;;;;;;;;;;5077643;28;20024;-78
2022/01/04 09:11:55;;;;;;;5.60;2.80;;;;;;;;;;5077446;28;20028;-78
2022/01/04 09:14:26;;;;;;;4.70;2.72;;;;;;;;;;5076301;28;20028;-78
2022/01/04 09:19:37;;;;;;;7.40;2.72;;;;;;;;;;5076282;28;20070;-78
2022/01/04 09:22:03;;;;;;;5.82;3.00;;;;;;;;;;5076004;28;20020;-80
2022/01/04 09:24:29;;;;;;;6.32;3.60;;;;;;;;;;5075550;28;20025;-78
2022/01/04 09:26:54;;;;;;;7.50;4.05;;;;;;;;;;5074229;28;20446;-78
2022/01/04 09:29:20;;;;;;;6.50;4.07;;;;;;;;;;5075744;28;20473;-78
2022/01/04 09:31:50;;;;;;;7.32;4.50;;;;;;;;;;5074932;28;20079;-78
2022/01/04 09:34:16;;;;;;;6.68;3.92;;;;;;;;;;5076136;28;20032;-79
2022/01/04 09:36:42;;;;;;;7.63;3.80;;;;;;;;;;5074458;28;20378;-78
2022/01/04 09:39:21;;;;;;;8.68;4.80;;;;;;;;;;5073365;28;20038;-77
2022/01/04 09:41:46;;;;;;;7.45;4.60;;;;;;;;;;5075003;28;20020;-79
2022/01/04 09:44:12;;;;;;;6.10;4.05;;;;;;;;;;5075835;28;20111;-80
2022/01/04 09:46:37;;;;;;;9.40;4.70;;;;;;;;;;5074046;28;20054;-78
2022/01/04 09:49:03;;;;;;;8.90;4.22;;;;;;;;;;5076711;28;20028;-80
2022/01/04 09:51:30;;;;;;;10.30;4.07;;;;;;;;;;5076694;28;20024;-80
2022/01/04 09:53:56;;;;;;;8.02;4.18;;;;;;;;;;5076088;28;20111;-80
2022/01/04 09:56:21;;;;;;;11.77;4.43;;;;;;;;;;5077828;28;20047;-78
2022/01/04 09:58:46;;;;;;;6.75;3.65;;;;;;;;;;5077738;28;20058;-81
2022/01/04 10:01:22;;;;;;;7.40;4.38;;;;;;;;;;5077529;28;20107;-79
2022/01/04 10:03:48;;;;;;;6.22;3.97;;;;;;;;;;5076516;28;20020;-80
2022/01/04 10:06:17;;;;;;;8.68;3.83;;;;;;;;;;5077392;28;20032;-80
2022/01/04 10:09:01;;;;;;;9.65;3.80;;;;;;;;;;5076408;28;20023;-79
2022/01/04 10:11:35;;;;;;;7.60;3.72;;;;;;;;;;5077451;28;20025;-78
2022/01/04 10:14:22;;;;;;;7.05;4.00;;;;;;;;;;5078726;28;20047;-79
2022/01/04 10:16:51;;;;;;;13.00;7.10;;;;;;;;;;5076577;28;20033;-79
2022/01/04 10:19:34;;;;;;;8.00;4.85;;;;;;;;;;5078811;28;20028;-81
2022/01/04 10:22:15;;;;;;;10.48;5.85;;;;;;;;;;5076646;28;20095;-79
2022/01/04 10:24:42;;;;;;;10.40;5.25;;;;;;;;;;5079001;28;20135;-78
2022/01/04 10:27:49;;;;;;;10.10;5.38;;;;;;;;;;5076619;28;20028;-79
2022/01/04 10:30:20;;;;;;;9.30;5.45;;;;;;;;;;5036244;28;20053;-80
2022/01/04 10:33:01;;;;;;;9.40;4.72;;;;;;;;;;5072879;28;20032;-79
2022/01/04 10:35:33;;;;;;;7.30;3.80;;;;;;;;;;5077841;28;20043;-80
2022/01/04 10:38:01;;;;;;;5.82;3.97;;;;;;;;;;5077398;28;20099;-79
2022/01/04 10:40:28;;;;;;;5.32;3.42;;;;;;;;;;5077926;28;20051;-78
2022/01/04 10:42:54;;;;;;;10.35;3.97;;;;;;;;;;5077542;28;20044;-79
2022/01/04 10:45:27;;;;;;;7.03;3.90;;;;;;;;;;5078030;28;20389;-80
2022/01/04 10:47:53;;;;;;;5.87;3.50;;;;;;;;;;5077678;28;20016;-80
2022/01/04 10:50:35;;;;;;;5.65;3.45;;;;;;;;;;5078404;28;20371;-78
2022/01/04 10:53:01;;;;;;;6.35;3.40;;;;;;;;;;5077435;28;20029;-79
2022/01/04 10:55:34;;;;;;;5.65;3.00;;;;;;;;;;5077374;28;20539;-79
2022/01/04 10:58:02;;;;;;;5.72;3.40;;;;;;;;;;5075599;28;20115;-80
2022/01/04 11:00:28;;;;;;;5.28;3.20;;;;;;;;;;5077590;28;20027;-78
2022/01/04 11:02:54;;;;;;;7.40;3.30;;;;;;;;;;5077801;28;20032;-78
2022/01/04 11:05:21;;;;;;;4.82;3.05;;;;;;;;;;5076154;28;20027;-80
2022/01/04 11:07:59;;;;;;;7.40;3.03;;;;;;;;;;5078450;28;20385;-79
2022/01/04 11:10:31;;;;;;;6.90;3.33;;;;;;;;;;5075706;28;20115;-78
2022/01/04 11:12:58;;;;;;;4.72;3.00;;;;;;;;;;5076606;28;20028;-80
2022/01/04 11:15:24;;;;;;;5.10;3.10;;;;;;;;;;5076136;28;20052;-78
2022/01/04 11:17:49;;;;;;;4.97;2.95;;;;;;;;;;5077642;28;20032;-81
2022/01/04 11:20:14;;;;;;;6.45;3.00;;;;;;;;;;5077100;28;20028;-81
2022/01/04 11:22:44;;;;;;;4.50;2.85;;;;;;;;;;5076713;28;20024;-79
2022/01/04 11:25:10;;;;;;;6.22;3.00;;;;;;;;;;5076626;28;20028;-81
2022/01/04 11:27:36;;;;;;;5.70;3.30;;;;;;;;;;5075774;28;20036;-80
2022/01/04 11:30:13;;;;;;;9.40;3.60;;;;;;;;;;5077413;28;20389;-78
2022/01/04 11:32:43;;;;;;;6.95;3.30;;;;;;;;;;5077667;28;20028;-81
2022/01/04 11:35:13;;;;;;;6.85;4.15;;;;;;;;;;5079074;28;20024;-80
2022/01/04 11:37:41;;;;;;;6.65;3.70;;;;;;;;;;5080737;28;20021;-79
2022/01/04 11:40:24;;;;;;;5.07;3.63;;;;;;;;;;5080658;28;20505;-79
2022/01/04 11:42:50;;;;;;;6.10;3.65;;;;;;;;;;5080604;28;20032;-79
2022/01/04 11:45:18;;;;;;;7.00;4.15;;;;;;;;;;5079700;28;20024;-78
2022/01/04 11:47:47;;;;;;;8.82;4.15;;;;;;;;;;5077806;28;20024;-80
2022/01/04 11:50:15;;;;;;;7.00;3.95;;;;;;;;;;5079456;28;20021;-80
2022/01/04 11:52:56;;;;;;;6.53;3.75;;;;;;;;;;5080200;28;20025;-79
2022/01/04 11:55:36;;;;;;;9.63;4.32;;;;;;;;;;5081178;28;20040;-80
2022/01/04 11:58:16;;;;;;;7.30;3.70;;;;;;;;;;5081047;28;20024;-80
2022/01/04 12:00:45;;;;;;;9.20;4.15;;;;;;;;;;5081157;28;20023;-78
2022/01/04 12:03:21;;;;;;;7.40;3.80;;;;;;;;;;5080857;28;20028;-79
2022/01/04 12:05:55;;;;;;;6.90;3.80;;;;;;;;;;5080046;28;20035;-79
2022/01/04 12:08:23;;;;;;;7.10;3.92;;;;;;;;;;5082039;28;20020;-80
2022/01/04 12:10:53;;;;;;;6.55;3.70;;;;;;;;;;5082238;28;20056;-81
2022/01/04 12:13:23;;;;;;;6.28;3.60;;;;;;;;;;5081372;28;20024;-81
2022/01/04 12:16:04;;;;;;;6.07;3.60;;;;;;;;;;5077748;28;20063;-78
2022/01/04 12:18:36;;;;;;;6.55;3.35;;;;;;;;;;5081589;28;20020;-79
2022/01/04 12:21:12;;;;;;;7.03;3.47;;;;;;;;;;5080890;28;20025;-79
2022/01/04 12:23:48;;;;;;;4.97;3.25;;;;;;;;;;5080484;28;20024;-79
2022/01/04 12:26:16;;;;;;;6.03;3.55;;;;;;;;;;5080727;28;20025;-79
2022/01/04 12:28:43;;;;;;;5.75;3.05;;;;;;;;;;5080552;28;20020;-81
2022/01/04 12:31:18;;;;;;;4.55;3.03;;;;;;;;;;5076798;28;20490;-80
2022/01/04 12:33:46;;;;;;;4.38;2.78;;;;;;;;;;5077029;28;20048;-80
2022/01/04 12:36:28;;;;;;;4.50;2.70;;;;;;;;;;5078953;28;20036;-80
2022/01/04 12:38:57;;;;;;;4.50;2.70;;;;;;;;;;5079572;28;20017;-80
2022/01/04 12:41:22;;;;;;;3.25;2.40;;;;;;;;;;5079784;28;20050;-81
2022/01/04 12:43:50;;;;;;;3.15;2.00;;;;;;;;;;5079372;28;20025;-80
2022/01/04 12:46:26;;;;;;;2.42;1.80;;;;;;;;;;5076707;28;20490;-80
2022/01/04 12:48:55;;;;;;;1.70;1.33;;;;;;;;;;5078962;28;20020;-80
2022/01/04 12:51:37;;;;;;;1.70;1.15;;;;;;;;;;5078127;28;20032;-78
2022/01/04 12:54:08;;;;;;;2.00;0.90;;;;;;;;;;5077946;28;20374;-80
2022/01/04 12:56:40;;;;;;;1.40;1.30;;;;;;;;;;5076500;28;20032;-80
2022/01/04 12:59:06;;;;;;;3.58;1.50;;;;;;;;;;5078817;28;20112;-78
2022/01/04 13:01:33;;;;;;;2.72;1.45;;;;;;;;;;5077596;28;20036;-78
2022/01/04 13:03:59;;;;;;;1.60;1.30;;;;;;;;;;5075876;28;20036;-79
2022/01/04 13:06:25;;;;;;;3.28;1.40;;;;;;;;;;5077551;28;20024;-79
2022/01/04 13:08:54;;;;;;;2.63;1.40;;;;;;;;;;5077902;28;20025;-80
2022/01/04 13:11:21;;;;;;;2.92;1.40;;;;;;;;;;5077771;28;20423;-78
2022/01/04 13:14:06;;;;;;;1.45;1.23;;;;;;;;;;5076845;28;20393;-79
2022/01/04 13:16:34;;;;;;;3.08;1.50;;;;;;;;;;5077489;28;20047;-78
2022/01/04 13:19:15;;;;;;;4.07;1.55;;;;;;;;;;5077622;28;20112;-79
2022/01/04 13:21:41;;;;;;;2.28;1.30;;;;;;;;;;5077529;28;20055;-78
2022/01/04 13:24:06;;;;;;;2.70;1.60;;;;;;;;;;5077424;28;20028;-79
2022/01/04 13:26:31;;;;;;;1.92;1.40;;;;;;;;;;5075678;28;20436;-79
2022/01/04 13:28:59;;;;;;;2.63;1.30;;;;;;;;;;5079268;28;20028;-79
2022/01/04 13:31:26;;;;;;;4.43;1.63;;;;;;;;;;5077967;28;20028;-79
2022/01/04 13:33:53;;;;;;;2.25;1.33;;;;;;;;;;5078819;28;20029;-80
2022/01/04 13:36:22;;;;;;;5.00;1.27;;;;;;;;;;5078446;28;20021;-79
2022/01/04 13:38:50;;;;;;;2.55;1.30;;;;;;;;;;5076774;28;20032;-80
2022/01/04 13:41:30;;;;;;;2.33;1.63;;;;;;;;;;5078394;28;20024;-79
2022/01/04 13:44:04;;;;;;;3.00;2.15;;;;;;;;;;5076389;28;20119;-81
2022/01/04 13:46:30;;;;;;;5.43;2.10;;;;;;;;;;5075991;28;20485;-80
2022/01/04 13:48:56;;;;;;;5.20;2.10;;;;;;;;;;5076078;28;20116;-78
2022/01/04 13:51:26;;;;;;;3.00;2.22;;;;;;;;;;5076343;28;20048;-80
2022/01/04 13:53:59;;;;;;;2.70;2.20;;;;;;;;;;5077304;28;20115;-80
2022/01/04 13:56:30;;;;;;;3.10;2.20;;;;;;;;;;5074812;28;20029;-81
2022/01/04 13:58:58;;;;;;;2.78;2.05;;;;;;;;;;5076527;28;20074;-79
2022/01/04 14:01:33;;;;;;;3.70;2.10;;;;;;;;;;5076202;28;20035;-80
2022/01/04 14:04:08;;;;;;;5.53;2.50;;;;;;;;;;5076796;28;20056;-80
2022/01/04 14:06:39;;;;;;;5.03;2.88;;;;;;;;;;5076760;28;20020;-80
2022/01/04 14:09:36;;;;;;;3.70;2.67;;;;;;;;;;5078198;28;20478;-81
2022/01/04 14:12:01;;;;;;;4.13;2.67;;;;;;;;;;5073949;28;20040;-81
2022/01/04 14:14:31;;;;;;;3.93;2.73;;;;;;;;;;5076854;28;20020;-80
2022/01/04 14:17:03;;;;;;;3.35;2.30;;;;;;;;;;5076961;28;20170;-80
2022/01/04 14:19:30;;;;;;;3.47;2.40;;;;;;;;;;5076332;28;20032;-80
2022/01/04 14:22:06;;;;;;;2.78;2.00;;;;;;;;;;5076146;28;20024;-80
2022/01/04 14:24:47;;;;;;;2.63;2.25;;;;;;;;;;5075912;28;20028;-79
2022/01/04 14:27:22;;;;;;;2.72;1.98;;;;;;;;;;5076334;28;20016;-80
2022/01/04 14:29:49;;;;;;;3.53;2.15;;;;;;;;;;5073335;28;20016;-81
2022/01/04 14:32:24;;;;;;;3.92;2.38;;;;;;;;;;5074311;28;20036;-80
2022/01/04 14:34:50;;;;;;;3.38;2.17;;;;;;;;;;5073849;28;20029;-81
2022/01/04 14:37:16;;;;;;;3.65;2.30;;;;;;;;;;5074106;28;20020;-80
2022/01/04 14:39:41;;;;;;;2.97;2.25;;;;;;;;;;5075203;28;20024;-81
2022/01/04 14:42:06;;;;;;;2.53;1.70;;;;;;;;;;5076289;28;20031;-78
2022/01/04 14:44:32;;;;;;;2.00;1.60;;;;;;;;;;5073863;28;20025;-80
2022/01/04 14:47:01;;;;;;;2.72;1.50;;;;;;;;;;5075886;28;20028;-79
2022/01/04 14:49:26;;;;;;;2.05;1.42;;;;;;;;;;5075742;28;20028;-79
2022/01/04 14:51:52;;;;;;;2.20;1.40;;;;;;;;;;5075454;28;20111;-80
2022/01/04 14:54:17;;;;;;;2.78;1.80;;;;;;;;;;5075395;28;20017;-80
2022/01/04 14:56:43;;;;;;;3.85;1.83;;;;;;;;;;5076145;28;20020;-79
2022/01/04 14:59:09;;;;;;;2.25;1.50;;;;;;;;;;5075757;28;20071;-80
2022/01/04 15:01:35;;;;;;;2.22;1.52;;;;;;;;;;5076465;28;20028;-79